Time;durP1;ratioP1;P1;durP2;ratioP2;P2;SDS_P1;SDS_P2;PMS_P1;PMS_P2;Temp;Humidity;BMP_temperature;BMP_pressure;BME280_temperature;BME280_humidity;BME280_pressure;Samples;Min_cycle;Max_cycle;Signal;HPM_P1;HPM_P2
2021/12/03 00:01:49;;;;;;;31.42;17.05;;;;;;;4.65;61.72;94500.28;5010519;28;20026;-74
2021/12/03 00:04:15;;;;;;;31.20;16.33;;;;;;;4.73;60.83;94517.34;5009411;28;20033;-73
2021/12/03 00:06:40;;;;;;;28.85;15.95;;;;;;;5.08;59.96;94515.31;5019639;28;20033;-74
2021/12/03 00:09:07;;;;;;;21.55;12.57;;;;;;;4.10;62.34;94530.66;5012104;28;20609;-73
2021/12/03 00:11:34;;;;;;;27.92;15.25;;;;;;;4.65;61.62;94521.34;5010426;28;20022;-72
2021/12/03 00:13:59;;;;;;;29.63;16.60;;;;;;;5.71;58.71;94515.72;5010476;28;20483;-74
2021/12/03 00:16:25;;;;;;;26.58;15.90;;;;;;;5.16;59.08;94526.00;5010610;28;20026;-73
2021/12/03 00:18:50;;;;;;;22.10;14.60;;;;;;;5.04;58.88;94509.81;5010450;28;20034;-74
2021/12/03 00:21:17;;;;;;;28.33;16.25;;;;;;;4.98;59.75;94545.22;5009672;28;20064;-74
2021/12/03 00:23:42;;;;;;;22.75;14.27;;;;;;;4.04;60.82;94529.88;5021601;28;20033;-73
2021/12/03 00:26:08;;;;;;;25.15;14.07;;;;;;;4.27;61.32;94553.91;5010113;28;20025;-73
2021/12/03 00:28:35;;;;;;;18.65;13.65;;;;;;;3.95;62.00;94544.72;5010531;28;20038;-73
2021/12/03 00:31:01;;;;;;;21.45;14.32;;;;;;;4.25;61.49;94548.94;5009827;28;20037;-72
2021/12/03 00:33:29;;;;;;;20.98;15.20;;;;;;;4.52;61.24;94573.94;5012140;28;20540;-72
2021/12/03 00:35:55;;;;;;;21.33;14.50;;;;;;;4.34;61.35;94578.06;5013638;28;20030;-73
2021/12/03 00:38:21;;;;;;;23.58;14.82;;;;;;;4.07;62.24;94594.34;5017564;28;20091;-73
2021/12/03 00:40:46;;;;;;;22.35;14.43;;;;;;;4.47;61.45;94593.22;5013874;28;20038;-73
2021/12/03 00:43:12;;;;;;;19.02;13.45;;;;;;;4.30;61.31;94604.16;5013836;28;20030;-75
2021/12/03 00:45:38;;;;;;;20.50;13.43;;;;;;;4.70;59.98;94596.91;5014266;28;20399;-73
2021/12/03 00:48:04;;;;;;;27.02;15.00;;;;;;;4.67;59.84;94605.41;5014263;28;20490;-73
2021/12/03 00:50:31;;;;;;;23.75;14.98;;;;;;;4.32;61.32;94606.50;5013321;28;20038;-73
2021/12/03 00:52:57;;;;;;;26.65;14.90;;;;;;;4.16;61.82;94619.81;5016074;28;20244;-74
2021/12/03 00:55:24;;;;;;;21.25;15.20;;;;;;;5.27;60.00;94626.84;5013967;28;20647;-73
2021/12/03 00:57:49;;;;;;;20.45;14.63;;;;;;;5.06;58.82;94626.28;5013959;28;20060;-73
2021/12/03 01:00:19;;;;;;;21.98;13.82;;;;;;;4.45;61.19;94650.63;5013587;28;20061;-73
2021/12/03 01:02:45;;;;;;;16.10;13.20;;;;;;;4.21;61.57;94644.53;5013788;28;20034;-74
2021/12/03 01:05:10;;;;;;;18.48;11.48;;;;;;;3.54;63.62;94644.97;5012587;28;20489;-74
2021/12/03 01:07:36;;;;;;;26.40;16.35;;;;;;;5.01;59.66;94636.91;5013788;28;20072;-74
2021/12/03 01:10:04;;;;;;;24.38;15.10;;;;;;;4.67;60.70;94658.09;5013724;28;20030;-73
2021/12/03 01:12:29;;;;;;;22.52;15.38;;;;;;;5.33;59.13;94672.41;5014006;28;20029;-74
2021/12/03 01:14:55;;;;;;;21.00;15.52;;;;;;;4.72;60.11;94665.94;5014148;28;20030;-74
2021/12/03 01:17:20;;;;;;;21.65;14.20;;;;;;;4.32;61.59;94669.72;5013020;28;20408;-75
2021/12/03 01:19:46;;;;;;;23.17;14.77;;;;;;;4.78;60.61;94680.63;5012733;28;20455;-75
2021/12/03 01:22:11;;;;;;;22.65;15.65;;;;;;;5.04;61.04;94690.91;5013310;28;20037;-74
2021/12/03 01:24:36;;;;;;;19.40;14.50;;;;;;;4.41;62.09;94695.19;5025831;28;20033;-75
2021/12/03 01:27:02;;;;;;;21.50;13.80;;;;;;;4.47;61.55;94705.66;5013762;28;20037;-75
2021/12/03 01:29:28;;;;;;;20.65;13.75;;;;;;;4.50;61.34;94719.06;5012524;28;20038;-75
2021/12/03 01:31:54;;;;;;;25.20;15.88;;;;;;;5.53;59.43;94714.38;5013736;28;20033;-76
2021/12/03 01:34:20;;;;;;;18.20;13.43;;;;;;;4.58;61.03;94715.84;5013809;28;20037;-75
2021/12/03 01:36:46;;;;;;;18.77;13.23;;;;;;;4.57;60.93;94727.44;5015663;28;20045;-75
2021/12/03 01:39:12;;;;;;;18.88;13.55;;;;;;;4.46;61.43;94723.31;5019316;28;20036;-75
2021/12/03 01:41:38;;;;;;;20.10;14.32;;;;;;;4.60;61.05;94731.34;5012299;28;20318;-74
2021/12/03 01:44:04;;;;;;;18.17;13.55;;;;;;;4.57;62.36;94729.28;5013115;28;20034;-75
2021/12/03 01:46:32;;;;;;;17.90;13.27;;;;;;;4.59;61.34;94741.13;5013558;28;20036;-74
2021/12/03 01:48:58;;;;;;;22.83;15.20;;;;;;;4.58;61.81;94736.13;5013729;28;20040;-75
2021/12/03 01:51:25;;;;;;;24.30;15.90;;;;;;;4.82;60.61;94704.59;5013212;28;20548;-76
2021/12/03 01:53:50;;;;;;;31.02;16.80;;;;;;;4.91;60.64;94702.88;5023232;28;20037;-75
2021/12/03 01:56:17;;;;;;;18.60;12.20;;;;;;;4.18;62.23;94714.28;5033719;28;20418;-75
2021/12/03 01:58:44;;;;;;;24.35;15.57;;;;;;;4.42;61.48;94724.94;5033616;28;20021;-76
2021/12/03 02:01:14;;;;;;;25.10;15.70;;;;;;;4.18;62.42;94730.09;5032178;28;20029;-76
2021/12/03 02:03:41;;;;;;;23.80;15.85;;;;;;;4.24;62.56;94734.25;5032626;28;20033;-75
2021/12/03 02:06:08;;;;;;;22.30;15.75;;;;;;;4.36;61.76;94711.00;5027433;28;20025;-76
2021/12/03 02:08:34;;;;;;;21.27;14.00;;;;;;;3.76;63.35;94718.22;5012245;28;20022;-75
2021/12/03 02:11:01;;;;;;;29.23;16.55;;;;;;;4.76;60.77;94734.66;5013156;28;20596;-75
2021/12/03 02:13:26;;;;;;;22.52;16.23;;;;;;;4.58;61.24;94731.63;5012787;28;20049;-75
2021/12/03 02:15:52;;;;;;;25.33;16.65;;;;;;;5.24;59.05;94714.44;5011916;28;20064;-76
2021/12/03 02:18:18;;;;;;;28.20;18.05;;;;;;;5.75;57.42;94727.03;5012865;28;20050;-75
2021/12/03 02:20:45;;;;;;;29.83;18.00;;;;;;;5.89;56.75;94732.41;5012086;28;20026;-74
2021/12/03 02:23:12;;;;;;;34.28;19.45;;;;;;;6.25;55.60;94716.91;5012534;28;20082;-74
2021/12/03 02:25:38;;;;;;;29.48;18.17;;;;;;;5.92;56.35;94722.09;5016384;28;20021;-74
2021/12/03 02:28:04;;;;;;;35.30;18.83;;;;;;;5.14;56.76;94619.63;5029519;23;20041;-65
2021/12/03 02:30:29;;;;;;;28.08;17.67;;;;;;;5.75;56.12;94729.69;5015422;28;20380;-66
2021/12/03 02:32:55;;;;;;;27.83;18.15;;;;;;;5.60;57.60;94737.78;5009943;28;20029;-66
2021/12/03 02:35:22;;;;;;;27.67;17.70;;;;;;;5.83;56.79;94736.94;5011711;28;20543;-65
2021/12/03 02:37:49;;;;;;;25.60;16.90;;;;;;;6.14;56.73;94729.47;5014928;28;20025;-66
2021/12/03 02:40:16;;;;;;;26.20;17.83;;;;;;;6.57;55.88;94720.66;5009520;28;20076;-66
2021/12/03 02:42:42;;;;;;;23.48;16.10;;;;;;;5.35;58.07;94744.91;5011262;28;20026;-65
2021/12/03 02:45:09;;;;;;;26.23;16.05;;;;;;;5.83;56.44;94680.75;5011504;28;20034;-65
2021/12/03 02:47:35;;;;;;;25.23;17.10;;;;;;;5.74;56.00;94757.94;5011502;28;20026;-66
2021/12/03 02:50:02;;;;;;;18.90;14.52;;;;;;;5.96;55.81;94759.28;5011035;28;20535;-66
2021/12/03 02:52:27;;;;;;;20.90;16.60;;;;;;;6.21;56.54;94758.16;5014449;28;20029;-67
2021/12/03 02:54:53;;;;;;;20.58;15.60;;;;;;;5.38;57.62;94731.16;5021101;28;20036;-66
2021/12/03 02:57:18;;;;;;;23.13;14.77;;;;;;;5.31;57.28;94737.81;5011892;28;20578;-68
2021/12/03 02:59:43;;;;;;;19.52;15.13;;;;;;;5.79;56.79;94740.47;5010948;28;20038;-66
2021/12/03 03:02:09;;;;;;;22.10;13.23;;;;;;;5.06;57.36;94737.00;5010957;28;20038;-66
2021/12/03 03:04:36;;;;;;;16.73;14.10;;;;;;;5.61;56.62;94757.81;5011278;28;20038;-66
2021/12/03 03:07:02;;;;;;;17.30;13.90;;;;;;;5.52;57.21;94757.63;5010526;28;20542;-66
2021/12/03 03:09:30;;;;;;;17.85;14.02;;;;;;;5.35;58.49;94775.75;5010705;28;20026;-66
2021/12/03 03:11:56;;;;;;;15.52;13.18;;;;;;;5.38;58.00;94767.31;5010888;28;20080;-66
2021/12/03 03:14:21;;;;;;;15.85;12.05;;;;;;;4.77;58.53;94788.94;5009722;28;20034;-67
2021/12/03 03:16:47;;;;;;;20.83;13.52;;;;;;;5.14;58.54;94799.69;5010906;28;20528;-66
2021/12/03 03:19:16;;;;;;;18.52;12.25;;;;;;;4.65;60.59;94792.69;5010503;28;20038;-64
2021/12/03 03:21:41;;;;;;;15.13;12.77;;;;;;;4.41;61.20;94778.66;5011639;28;20631;-67
2021/12/03 03:24:08;;;;;;;15.23;12.57;;;;;;;4.96;60.12;94787.19;5016560;28;20028;-67
2021/12/03 03:26:35;;;;;;;15.32;12.05;;;;;;;4.46;60.42;94798.91;5010823;28;20038;-67
2021/12/03 03:29:01;;;;;;;20.05;13.82;;;;;;;5.34;58.49;94800.56;5010347;28;20579;-67
2021/12/03 03:31:26;;;;;;;20.17;14.52;;;;;;;5.71;57.72;94795.41;5010243;28;20109;-67
2021/12/03 03:33:52;;;;;;;19.98;13.23;;;;;;;5.31;58.16;94785.28;5010694;28;20088;-66
2021/12/03 03:36:17;;;;;;;17.65;11.77;;;;;;;4.70;59.23;94779.47;5008909;28;20030;-67
2021/12/03 03:38:43;;;;;;;17.05;13.52;;;;;;;5.11;59.10;94775.72;5015849;28;20471;-65
2021/12/03 03:41:08;;;;;;;18.67;13.55;;;;;;;5.43;58.07;94759.34;5010651;28;20052;-66
2021/12/03 03:43:34;;;;;;;26.20;15.00;;;;;;;5.52;57.69;94777.97;5010117;28;20034;-65
2021/12/03 03:45:59;;;;;;;15.05;11.57;;;;;;;5.42;57.30;94807.84;5009323;28;20079;-68
2021/12/03 03:48:25;;;;;;;17.83;13.43;;;;;;;5.28;58.53;94784.00;5010596;28;20034;-65
2021/12/03 03:50:51;;;;;;;12.85;11.35;;;;;;;4.52;60.24;94811.75;5010100;28;20029;-66
2021/12/03 03:53:17;;;;;;;15.90;12.27;;;;;;;4.94;59.28;94813.81;5013125;28;20149;-66
2021/12/03 03:55:43;;;;;;;16.23;12.20;;;;;;;4.97;58.88;94794.06;5013659;28;20069;-66
2021/12/03 03:58:08;;;;;;;19.80;13.40;;;;;;;4.98;59.26;94813.28;5007903;28;20483;-66
2021/12/03 04:00:38;;;;;;;14.50;10.63;;;;;;;4.59;59.78;94803.53;5009654;28;20022;-65
2021/12/03 04:03:04;;;;;;;14.38;11.55;;;;;;;4.91;59.52;94822.31;5008565;28;20422;-65
2021/12/03 04:05:30;;;;;;;13.10;11.77;;;;;;;4.85;59.51;94796.25;5010404;28;20033;-66
2021/12/03 04:07:55;;;;;;;14.15;12.65;;;;;;;4.48;60.98;94791.50;5012699;28;20712;-66
2021/12/03 04:10:21;;;;;;;15.65;11.57;;;;;;;4.42;61.54;94832.91;5018126;28;20797;-66
2021/12/03 04:12:47;;;;;;;15.40;12.32;;;;;;;4.67;61.20;94832.75;5009843;28;20112;-67
2021/12/03 04:15:13;;;;;;;11.63;7.70;;;;;;;3.67;63.33;94838.19;5008740;28;20116;-65
2021/12/03 04:17:40;;;;;;;11.95;9.88;;;;;;;3.91;63.19;94835.75;5010167;28;20072;-67
2021/12/03 04:20:08;;;;;;;16.65;12.40;;;;;;;4.88;60.70;94838.66;5008442;28;20034;-65
2021/12/03 04:22:34;;;;;;;11.68;9.82;;;;;;;3.88;63.65;94838.91;5009799;28;20081;-66
2021/12/03 04:25:01;;;;;;;17.35;13.02;;;;;;;4.30;62.13;94817.44;5021292;28;20086;-66
2021/12/03 04:27:26;;;;;;;17.40;12.63;;;;;;;4.14;61.60;94808.00;5009924;28;20370;-65
2021/12/03 04:29:52;;;;;;;15.05;11.63;;;;;;;4.84;61.34;94844.75;5009584;28;20038;-65
2021/12/03 04:32:19;;;;;;;16.20;11.55;;;;;;;4.47;62.35;94845.25;5009750;28;20026;-66
2021/12/03 04:34:45;;;;;;;10.10;8.27;;;;;;;3.94;62.48;94834.41;5008763;28;20018;-67
2021/12/03 04:37:11;;;;;;;12.77;10.05;;;;;;;3.73;62.12;94812.66;5008181;28;20029;-67
2021/12/03 04:39:36;;;;;;;12.95;11.48;;;;;;;4.47;61.01;94803.13;5013063;28;20034;-67
2021/12/03 04:42:02;;;;;;;16.33;11.80;;;;;;;5.54;58.15;94820.69;5009601;28;20041;-67
2021/12/03 04:44:27;;;;;;;14.50;11.13;;;;;;;5.14;59.26;94855.06;5009839;28;20022;-67
2021/12/03 04:46:53;;;;;;;18.85;10.52;;;;;;;5.06;58.39;94849.59;5010139;28;20569;-66
2021/12/03 04:49:18;;;;;;;11.15;9.50;;;;;;;3.98;60.39;94823.09;5009686;28;20030;-67
2021/12/03 04:51:43;;;;;;;13.57;8.68;;;;;;;3.98;60.91;94853.88;5008877;28;20033;-67
2021/12/03 04:54:09;;;;;;;10.75;8.57;;;;;;;4.08;61.05;94873.06;5013389;28;20029;-67
2021/12/03 04:56:34;;;;;;;10.82;9.13;;;;;;;4.11;60.67;94874.38;5009719;28;20430;-64
2021/12/03 04:59:00;;;;;;;12.13;9.70;;;;;;;4.30;59.67;94835.88;5009408;28;20425;-67
2021/12/03 05:01:25;;;;;;;11.90;9.52;;;;;;;4.24;60.57;94873.00;5009396;28;20026;-68
2021/12/03 05:03:51;;;;;;;14.00;10.43;;;;;;;4.45;59.55;94840.22;5008435;28;20014;-66
2021/12/03 05:06:27;;;;;;;11.40;9.73;;;;;;;4.25;60.71;94885.09;5007856;28;20026;-65
2021/12/03 05:08:56;;;;;;;9.88;8.88;;;;;;;4.32;59.58;94872.44;5012413;28;20013;-65
2021/12/03 05:11:22;;;;;;;10.38;9.27;;;;;;;4.10;60.67;94863.06;5007818;28;20022;-67
2021/12/03 05:13:47;;;;;;;12.05;9.38;;;;;;;4.41;59.65;94892.69;5008292;28;20029;-66
2021/12/03 05:16:13;;;;;;;12.05;9.55;;;;;;;4.93;58.93;94890.53;5009425;28;20167;-66
2021/12/03 05:18:38;;;;;;;12.15;10.07;;;;;;;5.20;57.41;94861.06;5008454;28;20025;-67
2021/12/03 05:21:04;;;;;;;12.75;10.90;;;;;;;5.46;57.11;94891.44;5012206;28;20022;-67
2021/12/03 05:23:32;;;;;;;11.57;10.32;;;;;;;5.07;58.30;94902.06;5012218;28;20030;-67
2021/12/03 05:25:59;;;;;;;12.27;10.80;;;;;;;5.42;56.49;94871.94;5015334;28;20037;-67
2021/12/03 05:28:26;;;;;;;14.80;10.38;;;;;;;4.98;58.07;94914.22;4993614;28;20048;-67
2021/12/03 05:30:51;;;;;;;14.13;11.60;;;;;;;5.31;57.25;94912.66;4993065;28;20030;-68
2021/12/03 05:33:19;;;;;;;12.77;11.32;;;;;;;5.46;56.27;94893.28;4993154;28;20023;-65
2021/12/03 05:35:44;;;;;;;14.25;10.27;;;;;;;5.04;57.06;94902.59;4993619;28;20022;-65
2021/12/03 05:38:10;;;;;;;15.07;11.65;;;;;;;5.39;56.35;94890.19;5007047;28;20040;-65
2021/12/03 05:40:35;;;;;;;13.68;11.00;;;;;;;5.02;57.29;94888.91;5014858;28;20483;-67
2021/12/03 05:43:00;;;;;;;13.38;10.88;;;;;;;4.91;57.86;94932.19;5012508;28;20028;-67
2021/12/03 05:45:30;;;;;;;13.35;10.50;;;;;;;4.78;59.01;94945.97;5012705;28;20150;-68
2021/12/03 05:47:57;;;;;;;13.93;11.82;;;;;;;4.95;57.21;94915.56;5011460;28;20056;-66
2021/12/03 05:50:23;;;;;;;13.80;11.90;;;;;;;4.74;58.59;94953.63;5012342;28;20026;-66
2021/12/03 05:52:50;;;;;;;12.55;11.35;;;;;;;4.88;58.96;94959.09;5014242;28;20029;-65
2021/12/03 05:55:16;;;;;;;15.82;12.65;;;;;;;5.91;55.68;94952.81;5011990;28;20072;-66
2021/12/03 05:57:42;;;;;;;14.20;11.38;;;;;;;4.85;57.84;94959.63;5012470;28;20503;-66
2021/12/03 06:00:13;;;;;;;13.48;11.45;;;;;;;5.05;57.99;94959.50;5012049;28;20028;-66
2021/12/03 06:02:39;;;;;;;14.05;11.05;;;;;;;5.02;58.16;94969.84;5012099;28;20483;-67
2021/12/03 06:05:05;;;;;;;13.45;11.38;;;;;;;4.47;58.30;94956.66;5012640;28;20075;-66
2021/12/03 06:07:30;;;;;;;12.10;10.32;;;;;;;4.09;59.85;94974.66;5010514;28;20049;-66
2021/12/03 06:09:55;;;;;;;13.77;11.32;;;;;;;4.73;58.62;94972.34;5023720;28;20483;-66
2021/12/03 06:12:21;;;;;;;13.90;10.88;;;;;;;3.75;61.69;94981.56;5011930;28;20081;-67
2021/12/03 06:14:46;;;;;;;15.52;10.45;;;;;;;3.71;61.20;94981.28;5011192;28;20030;-70
2021/12/03 06:17:12;;;;;;;16.27;10.90;;;;;;;4.07;60.19;94989.94;5012534;28;20026;-68
2021/12/03 06:19:39;;;;;;;16.38;10.77;;;;;;;4.25;60.31;95004.38;5011810;28;20022;-68
2021/12/03 06:22:05;;;;;;;15.20;11.43;;;;;;;4.49;59.65;94999.28;5011384;28;20076;-67
2021/12/03 06:24:30;;;;;;;13.23;11.38;;;;;;;4.79;59.50;95005.50;5015496;28;20030;-63
2021/12/03 06:26:58;;;;;;;16.55;12.88;;;;;;;5.40;57.85;95002.53;5014210;28;20101;-64
2021/12/03 06:29:24;;;;;;;19.88;12.07;;;;;;;4.83;58.64;94996.00;4992077;28;20488;-66
2021/12/03 06:31:49;;;;;;;14.00;12.02;;;;;;;4.19;60.69;94979.09;4990135;28;20532;-65
2021/12/03 06:34:15;;;;;;;13.70;11.27;;;;;;;4.41;60.49;95019.09;4990780;28;20088;-65
2021/12/03 06:36:40;;;;;;;14.35;11.32;;;;;;;3.99;60.60;95011.50;5007142;28;20026;-66
2021/12/03 06:39:06;;;;;;;17.33;12.98;;;;;;;4.23;60.84;95003.06;5014571;28;20026;-69
2021/12/03 06:41:31;;;;;;;15.95;12.48;;;;;;;3.64;61.99;95018.38;5011273;28;20461;-69
2021/12/03 06:43:57;;;;;;;16.17;11.43;;;;;;;3.64;61.94;95002.59;5011477;28;20034;-60
2021/12/03 06:46:23;;;;;;;14.88;12.05;;;;;;;4.35;60.09;95006.19;5010153;28;20092;-69
2021/12/03 06:48:48;;;;;;;16.58;12.95;;;;;;;4.12;60.38;94999.66;5008648;28;20030;-61
2021/12/03 06:51:15;;;;;;;17.20;11.82;;;;;;;3.75;61.63;95026.28;5023289;28;20506;-65
2021/12/03 06:53:43;;;;;;;16.42;11.95;;;;;;;4.22;59.34;95015.44;5017672;28;20120;-70
2021/12/03 06:56:18;;;;;;;17.20;12.30;;;;;;;4.46;59.04;95020.13;5014700;28;20022;-68
2021/12/03 06:58:44;;;;;;;17.33;13.77;;;;;;;5.10;57.67;95017.47;5011323;28;20049;-65
2021/12/03 07:01:09;;;;;;;18.42;12.73;;;;;;;4.64;58.27;95015.06;5010203;28;20073;-64
2021/12/03 07:03:34;;;;;;;14.45;12.02;;;;;;;4.55;59.01;95045.63;5009366;28;20026;-67
2021/12/03 07:06:00;;;;;;;15.35;13.15;;;;;;;4.48;58.92;95029.34;5011105;28;20040;-68
2021/12/03 07:08:25;;;;;;;20.45;14.40;;;;;;;4.85;58.89;95054.50;5010554;28;20026;-63
2021/12/03 07:10:50;;;;;;;21.58;14.30;;;;;;;4.54;57.78;95045.91;5012864;28;20064;-67
2021/12/03 07:13:16;;;;;;;18.08;14.55;;;;;;;4.56;58.25;95039.31;5009402;28;20041;-66
2021/12/03 07:15:41;;;;;;;24.75;14.88;;;;;;;4.97;57.28;95060.28;5011267;28;20061;-66
2021/12/03 07:18:07;;;;;;;23.00;15.50;;;;;;;4.95;58.06;95065.78;5008754;28;20030;-61
2021/12/03 07:20:34;;;;;;;23.70;15.82;;;;;;;5.11;57.68;95069.16;5010427;28;20111;-63
2021/12/03 07:22:59;;;;;;;20.45;15.75;;;;;;;5.60;56.23;95062.31;5008606;28;20444;-63
2021/12/03 07:25:25;;;;;;;22.38;16.13;;;;;;;5.62;56.07;95081.28;5014476;28;20033;-65
2021/12/03 07:27:51;;;;;;;22.10;15.13;;;;;;;4.81;58.29;95085.06;5010669;28;20084;-63
2021/12/03 07:30:18;;;;;;;22.67;15.90;;;;;;;5.96;56.35;95079.50;5010411;28;20036;-61
2021/12/03 07:32:45;;;;;;;23.08;15.55;;;;;;;6.16;55.51;95077.75;5008693;28;20480;-61
2021/12/03 07:35:11;;;;;;;23.05;16.92;;;;;;;6.89;53.84;95090.78;5010394;28;20034;-61
2021/12/03 07:37:37;;;;;;;21.20;14.50;;;;;;;6.24;54.38;95085.88;5009705;28;20041;-61
2021/12/03 07:40:04;;;;;;;19.40;14.73;;;;;;;6.06;54.83;95097.13;5012181;28;20022;-63
2021/12/03 07:42:31;;;;;;;21.70;14.73;;;;;;;5.23;56.96;95097.84;5009191;28;20034;-61
2021/12/03 07:44:57;;;;;;;25.30;14.07;;;;;;;5.78;54.76;95081.97;5009204;28;20037;-70
2021/12/03 07:47:22;;;;;;;16.33;13.90;;;;;;;6.25;54.10;95090.09;5009170;28;20029;-66
2021/12/03 07:49:50;;;;;;;18.13;13.30;;;;;;;5.69;55.35;95106.31;5010317;28;20029;-65
2021/12/03 07:52:16;;;;;;;19.13;13.65;;;;;;;4.26;59.89;95108.63;5009890;28;20156;-66
2021/12/03 07:54:42;;;;;;;17.77;13.75;;;;;;;5.90;56.40;95120.16;5013982;28;20022;-65
2021/12/03 07:57:07;;;;;;;14.48;12.20;;;;;;;5.18;56.62;95116.34;5010260;28;20030;-65
2021/12/03 07:59:33;;;;;;;10.68;9.50;;;;;;;4.55;57.60;95123.88;5009626;28;20096;-65
2021/12/03 08:01:58;;;;;;;12.52;10.30;;;;;;;5.13;55.88;95109.22;5009739;28;20032;-67
2021/12/03 08:04:24;;;;;;;13.10;11.57;;;;;;;5.70;54.86;95115.03;5010400;28;20581;-67
2021/12/03 08:06:52;;;;;;;13.15;11.63;;;;;;;5.83;54.65;95103.06;5010235;28;20100;-65
2021/12/03 08:09:18;;;;;;;14.10;11.98;;;;;;;5.88;54.25;95097.75;5012878;28;20553;-65
2021/12/03 08:11:43;;;;;;;12.07;10.63;;;;;;;6.53;52.75;95113.38;5009738;28;20025;-69
2021/12/03 08:14:08;;;;;;;13.27;11.88;;;;;;;7.25;51.88;95120.25;5008821;28;20030;-65
2021/12/03 08:16:34;;;;;;;18.08;12.05;;;;;;;7.14;52.01;95125.97;5010229;28;20026;-65
2021/12/03 08:18:59;;;;;;;14.73;12.40;;;;;;;7.80;51.37;95123.28;5008452;28;20412;-64
2021/12/03 08:21:25;;;;;;;14.00;11.63;;;;;;;6.22;52.99;95108.34;5008340;28;20687;-64
2021/12/03 08:23:50;;;;;;;12.45;9.98;;;;;;;5.83;53.51;95121.53;5012120;28;20053;-63
2021/12/03 08:26:16;;;;;;;12.55;10.98;;;;;;;5.38;55.23;95113.63;5009461;28;20057;-63
2021/12/03 08:28:42;;;;;;;15.85;12.57;;;;;;;6.49;53.91;95127.13;5022182;23;20042;-73
2021/12/03 08:31:13;;;;;;;15.45;13.20;;;;;;;6.76;51.88;95133.78;5028036;28;20071;-74
2021/12/03 08:33:39;;;;;;;15.07;12.35;;;;;;;7.04;51.88;95124.22;5008634;28;20034;-71
2021/12/03 08:36:04;;;;;;;11.52;10.30;;;;;;;5.47;54.22;95127.00;5009782;28;20033;-71
2021/12/03 08:38:30;;;;;;;14.35;11.57;;;;;;;6.11;53.51;95126.13;4998481;28;20129;-72
2021/12/03 08:40:55;;;;;;;11.43;10.18;;;;;;;4.60;57.93;95134.41;4993341;28;20033;-71
2021/12/03 08:43:20;;;;;;;11.90;10.57;;;;;;;4.82;56.97;95131.47;4989759;28;20027;-70
2021/12/03 08:45:52;;;;;;;13.82;11.23;;;;;;;4.83;55.98;95128.56;4990125;28;20030;-71
2021/12/03 08:48:17;;;;;;;15.60;11.60;;;;;;;5.34;54.80;95143.44;4990210;28;20035;-71
2021/12/03 08:50:53;;;;;;;14.57;12.27;;;;;;;4.81;56.72;95135.16;4989899;28;20425;-71
2021/12/03 08:55:46;;;;;;;30.83;14.95;;;;;;;5.97;53.50;95156.84;4997755;28;20031;-71
2021/12/03 08:58:14;;;;;;;16.67;13.40;;;;;;;5.47;55.62;95166.56;4993945;28;20599;-71
2021/12/03 09:00:40;;;;;;;17.00;13.90;;;;;;;5.80;54.44;95157.19;4992570;28;20109;-71
2021/12/03 09:03:06;;;;;;;18.38;12.63;;;;;;;5.31;55.64;95165.06;4993740;28;20023;-71
2021/12/03 09:05:34;;;;;;;13.07;11.48;;;;;;;4.78;56.53;95167.31;4993976;28;20045;-73
2021/12/03 09:08:00;;;;;;;19.30;13.77;;;;;;;5.24;55.09;95168.00;4993342;28;20476;-71
2021/12/03 09:10:26;;;;;;;16.42;13.75;;;;;;;5.66;54.65;95161.47;4997161;28;20026;-73
2021/12/03 09:12:52;;;;;;;15.55;12.57;;;;;;;6.48;53.83;95167.84;4993452;28;20034;-71
2021/12/03 09:15:24;;;;;;;14.40;11.82;;;;;;;5.47;54.88;95175.28;4993969;28;20022;-73
2021/12/03 09:23:03;;;;;;;13.20;10.85;;;;;;;6.80;51.46;95166.50;4992809;28;20030;-72
2021/12/03 09:25:37;;;;;;;13.05;11.57;;;;;;;6.90;52.48;95169.03;4997449;28;20029;-72
2021/12/03 09:28:05;;;;;;;10.73;9.65;;;;;;;6.98;51.79;95157.09;4993654;28;20030;-73
2021/12/03 09:30:36;;;;;;;11.10;10.05;;;;;;;6.57;51.23;95175.97;4991934;28;20065;-73
2021/12/03 09:33:06;;;;;;;10.88;9.85;;;;;;;6.35;52.63;95178.25;4991577;28;20030;-72
2021/12/03 09:35:31;;;;;;;10.63;9.68;;;;;;;7.03;50.93;95155.16;4993691;28;20030;-73
2021/12/03 09:37:57;;;;;;;16.83;10.50;;;;;;;8.39;50.46;95162.72;4992779;28;20535;-73
2021/12/03 09:40:26;;;;;;;9.93;9.13;;;;;;;8.09;48.80;95159.44;4996499;28;20023;-73
2021/12/03 09:42:52;;;;;;;10.77;9.68;;;;;;;8.38;47.55;95153.19;4992957;28;20026;-72
2021/12/03 09:45:17;;;;;;;10.38;9.38;;;;;;;8.56;47.31;95157.69;4993310;28;20022;-73
2021/12/03 09:47:43;;;;;;;10.95;9.85;;;;;;;8.78;47.85;95160.47;4993295;28;20544;-72
2021/12/03 09:50:13;;;;;;;10.15;9.07;;;;;;;7.75;47.70;95131.28;4992531;28;20026;-72
2021/12/03 09:55:13;;;;;;;10.35;8.90;;;;;;;7.62;48.53;95179.63;4996688;28;20018;-75
2021/12/03 10:00:47;;;;;;;10.23;8.55;;;;;;;6.37;50.42;95155.78;4992989;28;20041;-72
2021/12/03 10:03:32;;;;;;;8.57;7.78;;;;;;;5.47;52.97;95163.94;4992708;28;20026;-72
2021/12/03 10:19:59;;;;;;;4.78;3.97;;;;;;;3.59;55.80;95147.25;4951542;29;20027;-74
2021/12/03 10:23:03;;;;;;;6.38;5.35;;;;;;;3.47;55.99;95138.00;4976961;28;20104;-75
2021/12/03 10:52:02;;;;;;;5.38;4.88;;;;;;;5.39;49.78;95117.81;4984672;28;20031;-73
2021/12/03 10:55:00;;;;;;;8.07;4.22;;;;;;;4.95;48.15;95115.09;4998158;28;20633;-74
2021/12/03 11:05:54;;;;;;;4.22;3.50;;;;;;;4.30;49.25;95107.06;4992065;28;20038;-72
2021/12/03 11:08:30;;;;;;;3.58;2.25;;;;;;;4.23;48.51;95111.00;4991318;28;20042;-74
2021/12/03 11:36:12;;;;;;;5.00;4.18;;;;;;;6.39;47.73;95095.50;4991310;28;20049;-72
2021/12/03 11:42:01;;;;;;;4.03;3.42;;;;;;;5.16;48.51;95099.97;4986628;28;20034;-74
2021/12/03 11:48:25;;;;;;;4.70;4.13;;;;;;;5.67;47.24;95074.13;4991079;28;20031;-75
2021/12/03 11:58:35;;;;;;;3.97;3.58;;;;;;;5.88;46.33;95097.75;4973839;28;20399;-74
2021/12/03 14:29:38;;;;;;;4.75;4.15;;;;;;;4.85;48.94;95049.22;4996104;28;20508;-74
2021/12/03 14:57:05;;;;;;;7.18;5.40;;;;;;;6.51;45.69;95055.53;5015064;28;20388;-65
2021/12/03 14:59:32;;;;;;;6.40;5.28;;;;;;;6.15;46.55;95040.00;5009532;28;20022;-65
2021/12/03 15:02:12;;;;;;;8.38;5.70;;;;;;;6.72;46.29;95050.81;5011019;28;20069;-65
2021/12/03 15:07:06;;;;;;;9.38;5.70;;;;;;;6.90;45.83;95049.28;5010842;28;20373;-65
2021/12/03 15:09:34;;;;;;;13.73;6.63;;;;;;;7.09;44.72;95036.09;5009973;28;20057;-64
2021/12/03 15:12:27;;;;;;;6.65;5.93;;;;;;;7.01;45.65;95048.88;5012726;28;20042;-64
2021/12/03 15:15:56;;;;;;;5.95;5.35;;;;;;;7.33;44.85;95036.84;5010560;28;20030;-64
2021/12/03 15:28:22;;;;;;;6.85;5.50;;;;;;;6.64;44.98;95041.63;5014342;28;20029;-64
2021/12/03 15:30:59;;;;;;;7.75;6.07;;;;;;;6.72;45.03;95019.09;5005405;28;20026;-65
2021/12/03 15:36:14;;;;;;;9.82;7.45;;;;;;;6.98;45.24;95038.09;5010894;28;20044;-64
2021/12/03 16:08:17;;;;;;;9.18;8.00;;;;;;;7.01;45.01;95030.38;5009715;28;20022;-66
2021/12/03 16:26:31;;;;;;;10.63;8.57;;;;;;;6.65;46.41;94998.25;5015118;28;20029;-65
2021/12/03 16:45:35;;;;;;;13.07;7.82;;;;;;;6.53;46.60;95005.81;5018037;28;20032;-67
2021/12/03 16:53:23;;;;;;;10.23;7.90;;;;;;;6.34;46.48;95000.44;4998605;28;20077;-65
2021/12/03 16:56:15;;;;;;;7.55;6.78;;;;;;;6.30;46.95;95003.97;5010157;28;20053;-65
2021/12/03 16:58:36;;;;;;;7.70;6.60;;;;;;;6.19;46.13;94996.13;5005620;28;20451;-65
2021/12/03 17:03:40;;;;;;;12.60;7.75;;;;;;;6.26;46.61;95001.09;5009321;28;20041;-66
2021/12/03 17:49:01;;;;;;;11.95;8.57;;;;;;;6.54;46.92;94948.47;5012488;28;20053;-63
2021/12/03 17:56:41;;;;;;;13.00;9.48;;;;;;;6.71;46.72;94970.72;5015950;28;20029;-65
2021/12/03 17:59:22;;;;;;;10.68;9.32;;;;;;;6.72;46.77;94956.44;5015746;28;20037;-63
2021/12/03 18:47:27;;;;;;;15.10;11.88;;;;;;;5.56;48.79;94935.41;5011800;28;20046;-61
2021/12/03 18:54:52;;;;;;;18.77;12.70;;;;;;;5.35;49.04;94911.06;5011504;28;20026;-63
2021/12/03 18:57:25;;;;;;;17.60;12.65;;;;;;;5.24;48.85;94896.38;5009542;28;20037;-63
2021/12/03 19:00:11;;;;;;;19.08;12.88;;;;;;;5.25;48.81;94891.88;5014308;28;20029;-62
2021/12/03 19:02:40;;;;;;;19.75;12.77;;;;;;;5.26;48.98;94893.47;4991471;28;20057;-62
2021/12/03 19:05:57;;;;;;;17.88;12.70;;;;;;;5.22;48.88;94887.97;5006726;28;20113;-62
2021/12/03 19:10:27;;;;;;;17.60;12.63;;;;;;;5.07;50.01;94886.22;4993497;28;20038;-61